Time;durP1;ratioP1;P1;durP2;ratioP2;P2;SDS_P1;SDS_P2;PMS_P1;PMS_P2;Temp;Humidity;BMP_temperature;BMP_pressure;BME280_temperature;BME280_humidity;BME280_pressure;Samples;Min_cycle;Max_cycle;Signal;HPM_P1;HPM_P2
2019/08/22 00:02:02;;;;;;;6.8;3;;;;;;;;;;;;;
2019/08/22 00:04:23;;;;;;;6.3;3.1;;;;;;;;;;;;;
2019/08/22 00:06:46;;;;;;;4.9;2.9;;;;;;;;;;;;;
2019/08/22 00:09:19;;;;;;;4.9;3.1;;;;;;;;;;;;;
2019/08/22 00:11:37;;;;;;;4.7;3.1;;;;;;;;;;;;;
2019/08/22 00:14:14;;;;;;;10.7;3.3;;;;;;;;;;;;;
2019/08/22 00:16:35;;;;;;;5.8;3.3;;;;;;;;;;;;;
2019/08/22 00:19:00;;;;;;;7.4;3.3;;;;;;;;;;;;;
2019/08/22 00:21:31;;;;;;;8.5;3.1;;;;;;;;;;;;;
2019/08/22 00:23:52;;;;;;;5.5;3.2;;;;;;;;;;;;;
2019/08/22 00:26:24;;;;;;;7.2;3;;;;;;;;;;;;;
2019/08/22 00:28:50;;;;;;;3.7;3;;;;;;;;;;;;;
2019/08/22 00:31:12;;;;;;;6.3;3.6;;;;;;;;;;;;;
2019/08/22 00:33:37;;;;;;;6.2;3.5;;;;;;;;;;;;;
2019/08/22 00:39:00;;;;;;;8.4;3.2;;;;;;;;;;;;;
2019/08/22 00:41:25;;;;;;;5.3;3.3;;;;;;;;;;;;;
2019/08/22 00:43:59;;;;;;;7.4;3.5;;;;;;;;;;;;;
2019/08/22 00:46:22;;;;;;;4.8;3.2;;;;;;;;;;;;;
2019/08/22 00:48:51;;;;;;;6.2;3.2;;;;;;;;;;;;;
2019/08/22 00:51:15;;;;;;;10.8;3.9;;;;;;;;;;;;;
2019/08/22 00:53:40;;;;;;;6.3;3.6;;;;;;;;;;;;;
2019/08/22 00:56:32;;;;;;;6.4;3;;;;;;;;;;;;;
2019/08/22 00:59:02;;;;;;;10.5;3;;;;;;;;;;;;;
2019/08/22 01:01:29;;;;;;;7.5;3.2;;;;;;;;;;;;;
2019/08/22 01:04:00;;;;;;;7.1;3.1;;;;;;;;;;;;;
2019/08/22 01:06:24;;;;;;;7.3;3;;;;;;;;;;;;;
2019/08/22 01:08:56;;;;;;;5;3;;;;;;;;;;;;;
2019/08/22 01:11:15;;;;;;;6.9;2.9;;;;;;;;;;;;;
2019/08/22 01:14:21;;;;;;;7.7;3;;;;;;;;;;;;;
2019/08/22 01:19:16;;;;;;;4.8;2.8;;;;;;;;;;;;;
2019/08/22 01:21:41;;;;;;;3.4;2.5;;;;;;;;;;;;;
2019/08/22 01:24:10;;;;;;;4.2;2.5;;;;;;;;;;;;;
2019/08/22 01:26:36;;;;;;;4.6;2.3;;;;;;;;;;;;;
2019/08/22 01:29:02;;;;;;;3.9;2.6;;;;;;;;;;;;;
2019/08/22 01:31:41;;;;;;;4;2.4;;;;;;;;;;;;;
2019/08/22 01:35:23;;;;;;;4.5;2.5;;;;;;;;;;;;;
2019/08/22 01:37:19;;;;;;;6.9;2.8;;;;;;;;;;;;;
2019/08/22 01:39:42;;;;;;;4.6;2.7;;;;;;;;;;;;;
2019/08/22 01:42:01;;;;;;;5;2.7;;;;;;;;;;;;;
2019/08/22 01:44:30;;;;;;;5.5;2.7;;;;;;;;;;;;;
2019/08/22 01:46:56;;;;;;;4.7;2.5;;;;;;;;;;;;;
2019/08/22 01:49:24;;;;;;;5.1;2.9;;;;;;;;;;;;;
2019/08/22 01:51:56;;;;;;;5.1;3;;;;;;;;;;;;;
2019/08/22 01:54:25;;;;;;;8.1;3.1;;;;;;;;;;;;;
2019/08/22 01:56:48;;;;;;;4;2.8;;;;;;;;;;;;;
2019/08/22 01:59:12;;;;;;;6.4;2.9;;;;;;;;;;;;;
2019/08/22 02:01:42;;;;;;;5.9;2.8;;;;;;;;;;;;;
2019/08/22 02:04:15;;;;;;;5.6;3.2;;;;;;;;;;;;;
2019/08/22 02:06:41;;;;;;;4.9;2.8;;;;;;;;;;;;;
2019/08/22 02:09:06;;;;;;;5.6;2.9;;;;;;;;;;;;;
2019/08/22 02:11:57;;;;;;;5.6;3;;;;;;;;;;;;;
2019/08/22 02:14:01;;;;;;;5.7;3.2;;;;;;;;;;;;;
2019/08/22 02:16:30;;;;;;;7.3;3.2;;;;;;;;;;;;;
2019/08/22 02:19:24;;;;;;;5.4;3.5;;;;;;;;;;;;;
2019/08/22 02:21:39;;;;;;;3.6;2.5;;;;;;;;;;;;;
2019/08/22 02:24:11;;;;;;;6.6;3;;;;;;;;;;;;;
2019/08/22 02:26:33;;;;;;;4.3;3.1;;;;;;;;;;;;;
2019/08/22 02:29:04;;;;;;;7.7;3.4;;;;;;;;;;;;;
2019/08/22 02:31:30;;;;;;;5.2;2.9;;;;;;;;;;;;;
2019/08/22 02:33:55;;;;;;;4.9;2.4;;;;;;;;;;;;;
2019/08/22 02:38:49;;;;;;;7.8;2.8;;;;;;;;;;;;;
2019/08/22 02:41:14;;;;;;;5.8;2.9;;;;;;;;;;;;;
2019/08/22 02:43:56;;;;;;;4.8;3.1;;;;;;;;;;;;;
2019/08/22 02:46:43;;;;;;;5.1;3.1;;;;;;;;;;;;;
2019/08/22 02:49:06;;;;;;;6.4;3.8;;;;;;;;;;;;;
2019/08/22 02:51:33;;;;;;;7.2;3.2;;;;;;;;;;;;;
2019/08/22 02:53:59;;;;;;;5.5;3;;;;;;;;;;;;;
2019/08/22 02:56:26;;;;;;;6.1;3.2;;;;;;;;;;;;;
2019/08/22 02:58:53;;;;;;;4.5;2.8;;;;;;;;;;;;;
2019/08/22 03:01:22;;;;;;;5.5;2.8;;;;;;;;;;;;;
2019/08/22 03:03:48;;;;;;;6.3;4;;;;;;;;;;;;;
2019/08/22 03:06:20;;;;;;;5.8;3.5;;;;;;;;;;;;;
2019/08/22 03:08:39;;;;;;;5.4;3.5;;;;;;;;;;;;;
2019/08/22 03:11:06;;;;;;;6.8;3.5;;;;;;;;;;;;;
2019/08/22 03:13:38;;;;;;;8.4;3.9;;;;;;;;;;;;;
2019/08/22 03:16:02;;;;;;;4;3.7;;;;;;;;;;;;;
2019/08/22 03:18:34;;;;;;;6.4;3.5;;;;;;;;;;;;;
2019/08/22 03:21:02;;;;;;;5.3;3.7;;;;;;;;;;;;;
2019/08/22 03:23:27;;;;;;;6.8;3.7;;;;;;;;;;;;;
2019/08/22 03:25:51;;;;;;;6.8;3.3;;;;;;;;;;;;;
2019/08/22 03:28:16;;;;;;;8.3;3.5;;;;;;;;;;;;;
2019/08/22 03:30:43;;;;;;;5.4;3.7;;;;;;;;;;;;;
2019/08/22 03:33:06;;;;;;;9.9;4.1;;;;;;;;;;;;;
2019/08/22 03:35:32;;;;;;;9.1;4.6;;;;;;;;;;;;;
2019/08/22 03:37:57;;;;;;;7.3;4.7;;;;;;;;;;;;;
2019/08/22 03:40:28;;;;;;;8.3;4.8;;;;;;;;;;;;;
2019/08/22 03:42:52;;;;;;;8.2;4.8;;;;;;;;;;;;;
2019/08/22 03:45:19;;;;;;;9.2;4.7;;;;;;;;;;;;;
2019/08/22 03:47:43;;;;;;;7.5;4.6;;;;;;;;;;;;;
2019/08/22 03:50:42;;;;;;;7.1;4.3;;;;;;;;;;;;;
2019/08/22 03:53:03;;;;;;;6;4.5;;;;;;;;;;;;;
2019/08/22 03:55:28;;;;;;;6.6;4.2;;;;;;;;;;;;;
2019/08/22 03:58:01;;;;;;;6.9;4.3;;;;;;;;;;;;;
2019/08/22 04:02:32;;;;;;;9.4;4;;;;;;;15.36;84.43945;945.2441;;;;
2019/08/22 04:05:03;;;;;;;7.1;4.1;;;;;;;15.35;84.63574;945.207;;;;
2019/08/22 04:07:35;;;;;;;6.4;3.9;;;;;;;15.37;84.61621;945.2328;;;;
2019/08/22 04:10:03;;;;;;;8.5;4.2;;;;;;;15.37;84.61621;945.2704;;;;
2019/08/22 04:12:36;;;;;;;6.7;4.3;;;;;;;15.25;85.53809;945.3063;;;;
2019/08/22 04:14:59;;;;;;;4.9;3.7;;;;;;;15.23;85.88086;945.1956;;;;
2019/08/22 04:17:28;;;;;;;6.3;4.2;;;;;;;15.29;85.67383;945.15;;;;
2019/08/22 04:19:55;;;;;;;5.6;3.8;;;;;;;15.17;85.9834;945.1822;;;;
2019/08/22 04:22:36;;;;;;;8.9;4.1;;;;;;;15.19;86.3125;945.2136;;;;
2019/08/22 04:25:16;;;;;;;5.7;4.1;;;;;;;15.14;86.0957;945.1942;;;;
2019/08/22 04:27:43;;;;;;;7.4;4.2;;;;;;;15.07;86.66797;945.1859;;;;
2019/08/22 04:33:00;;;;;;;4.3;3.9;;;;;;;15.23;86.18066;945.2068;;;;
2019/08/22 04:35:31;;;;;;;6.1;4.2;;;;;;;15.29;85.78906;945.2438;;;;
2019/08/22 04:38:16;;;;;;;9.7;4.7;;;;;;;15.35;85.78809;945.2319;;;;
2019/08/22 04:40:47;;;;;;;9.4;4.2;;;;;;;15.41;85.5;945.2737;;;;
2019/08/22 04:43:15;;;;;;;5.9;3.4;;;;;;;15.44;85.47266;945.2501;;;;
2019/08/22 04:45:40;;;;;;;5.3;3.3;;;;;;;15.48;85.17773;945.231;;;;
2019/08/22 04:48:12;;;;;;;7.3;3.6;;;;;;;15.47;84.99121;945.2349;;;;
2019/08/22 04:50:43;;;;;;;4.8;3.7;;;;;;;15.46;84.42383;945.1683;;;;
2019/08/22 04:53:05;;;;;;;6.1;4.2;;;;;;;15.45;84.34082;945.1931;;;;
2019/08/22 04:55:36;;;;;;;7.5;5.7;;;;;;;15.43;84.52441;945.1971;;;;
2019/08/22 04:58:05;;;;;;;15.4;11.7;;;;;;;15.44;84.51465;945.2341;;;;
2019/08/22 05:00:47;;;;;;;18.9;17.1;;;;;;;15.44;84.69922;945.1827;;;;
2019/08/22 05:03:08;;;;;;;15.8;14.2;;;;;;;15.52;84.85156;945.2333;;;;
2019/08/22 05:05:47;;;;;;;16.2;14.5;;;;;;;15.54;84.42969;945.2519;;;;
2019/08/22 05:08:04;;;;;;;11.7;10.6;;;;;;;15.54;84.2793;945.3185;;;;
2019/08/22 05:11:17;;;;;;;12.2;10.9;;;;;;;15.57;84.56152;945.3442;;;;
2019/08/22 05:13:53;;;;;;;15.1;13.5;;;;;;;15.64;84.40039;945.3723;;;;
2019/08/22 05:16:56;;;;;;;8.8;7.4;;;;;;;15.68;83.99316;945.4004;;;;
2019/08/22 05:19:37;;;;;;;5.9;5.1;;;;;;;15.64;84.29688;945.3498;;;;
2019/08/22 05:22:03;;;;;;;4.2;3.4;;;;;;;15.64;84.67969;945.4316;;;;
2019/08/22 05:24:40;;;;;;;3.9;2.3;;;;;;;15.67;84.56934;945.4301;;;;
2019/08/22 05:27:07;;;;;;;5.4;2.7;;;;;;;15.74;84.76855;945.5073;;;;
2019/08/22 05:32:22;;;;;;;3.3;2.5;;;;;;;15.83;84.49707;945.5639;;;;
2019/08/22 05:35:13;;;;;;;5.8;3;;;;;;;15.88;83.92773;945.5615;;;;
2019/08/22 05:37:47;;;;;;;5;3;;;;;;;16;83.55859;945.6475;;;;
2019/08/22 05:40:21;;;;;;;5.3;3.3;;;;;;;16.07;83.94141;945.635;;;;
2019/08/22 05:42:43;;;;;;;4.1;3.3;;;;;;;16.16;83.33398;945.6542;;;;
2019/08/22 05:45:26;;;;;;;4.6;3.2;;;;;;;16.25;82.92285;945.55;;;;
2019/08/22 05:48:09;;;;;;;5.2;3.1;;;;;;;16.36;82.52832;945.7011;;;;
2019/08/22 05:50:42;;;;;;;4.7;2.8;;;;;;;16.47;82.30371;945.6563;;;;
2019/08/22 05:56:11;;;;;;;4.2;2.5;;;;;;;16.56;80.5166;945.6834;;;;
2019/08/22 05:58:48;;;;;;;5.7;2.9;;;;;;;16.61;80.18945;945.7122;;;;
2019/08/22 06:01:16;;;;;;;4;2.8;;;;;;;16.61;79.7959;945.6311;;;;
2019/08/22 06:03:44;;;;;;;3.6;3.1;;;;;;;16.57;79.16211;945.6786;;;;
2019/08/22 06:06:11;;;;;;;5.9;3.3;;;;;;;16.49;80.8623;945.6039;;;;
2019/08/22 06:08:44;;;;;;;3.7;3.3;;;;;;;16.54;80.74316;945.6906;;;;
2019/08/22 06:11:09;;;;;;;5.6;3.4;;;;;;;16.57;81.15332;945.6761;;;;
2019/08/22 06:13:41;;;;;;;3.9;3.1;;;;;;;16.57;80.59766;945.6697;;;;
2019/08/22 06:16:11;;;;;;;4.9;3.3;;;;;;;16.58;80.92383;945.7139;;;;
2019/08/22 06:18:48;;;;;;;3.7;2.9;;;;;;;16.57;79.35938;945.6817;;;;
2019/08/22 06:21:18;;;;;;;4.8;3.2;;;;;;;16.6;79.98926;945.6954;;;;
2019/08/22 06:23:44;;;;;;;7.8;3;;;;;;;16.67;80.08496;945.6613;;;;
2019/08/22 06:26:12;;;;;;;5.3;2.8;;;;;;;16.67;80.45605;945.7344;;;;
2019/08/22 06:28:50;;;;;;;5.5;2.8;;;;;;;16.79;80.48828;945.6964;;;;
2019/08/22 06:31:15;;;;;;;3.9;3;;;;;;;16.77;80.24219;945.7406;;;;
2019/08/22 06:33:48;;;;;;;3.3;2.7;;;;;;;16.72;80.59082;945.7029;;;;
2019/08/22 06:36:17;;;;;;;3.8;2.8;;;;;;;16.64;80.47168;945.723;;;;
2019/08/22 06:38:54;;;;;;;4.3;2.9;;;;;;;16.71;80.99512;945.7617;;;;
2019/08/22 06:41:22;;;;;;;5.4;2.9;;;;;;;16.82;81.01465;945.7438;;;;
2019/08/22 06:44:07;;;;;;;7.2;3.5;;;;;;;16.76;81.41016;945.7809;;;;
2019/08/22 06:49:21;;;;;;;6;3.1;;;;;;;16.69;79.99609;945.777;;;;
2019/08/22 06:51:51;;;;;;;4.4;3.1;;;;;;;16.81;80.44727;945.7463;;;;
2019/08/22 06:54:18;;;;;;;5.3;3.1;;;;;;;16.72;80.67285;945.7449;;;;
2019/08/22 06:56:50;;;;;;;4.4;3;;;;;;;16.74;80.27246;945.7296;;;;
2019/08/22 06:59:23;;;;;;;5;3.3;;;;;;;16.72;80.5332;945.6861;;;;
2019/08/22 07:01:55;;;;;;;5;2.9;;;;;;;17;78.66113;945.7411;;;;
2019/08/22 07:04:28;;;;;;;4.5;2.5;;;;;;;17.21;77.49219;945.7101;;;;
2019/08/22 07:06:50;;;;;;;4.7;2.1;;;;;;;17.46;77.83887;945.6136;;;;
2019/08/22 07:09:26;;;;;;;6.1;2.5;;;;;;;17.67;77.02832;945.7247;;;;
2019/08/22 07:12:17;;;;;;;4.9;2.3;;;;;;;17.88;75.38281;945.7402;;;;
2019/08/22 07:14:52;;;;;;;3.6;2.1;;;;;;;17.9;74.50195;945.7609;;;;
2019/08/22 07:17:19;;;;;;;3.1;2.2;;;;;;;17.88;75.02246;945.749;;;;
2019/08/22 07:19:47;;;;;;;2.2;2;;;;;;;18.05;74.55078;945.7319;;;;
2019/08/22 07:22:11;;;;;;;3;2;;;;;;;18.17;73.79395;945.7173;;;;
2019/08/22 07:24:51;;;;;;;2.2;1.9;;;;;;;18.38;74.47949;945.7894;;;;
2019/08/22 07:27:21;;;;;;;3.6;1.8;;;;;;;18.29;73.29102;945.7562;;;;
2019/08/22 07:30:10;;;;;;;4.5;2.1;;;;;;;18.12;73.84277;945.7952;;;;
2019/08/22 07:32:44;;;;;;;2.9;1.8;;;;;;;18.1;74.01367;945.7961;;;;
2019/08/22 07:35:12;;;;;;;3.3;2;;;;;;;18.16;74.63867;945.8691;;;;
2019/08/22 07:37:39;;;;;;;2.5;1.8;;;;;;;17.89;75.84863;945.8287;;;;
2019/08/22 07:40:09;;;;;;;2.4;2;;;;;;;17.96;75.13965;945.8444;;;;
2019/08/22 07:42:42;;;;;;;4.4;2;;;;;;;18.02;75.5332;945.8345;;;;
2019/08/22 07:45:06;;;;;;;5.5;2.1;;;;;;;18.17;74.2002;945.7875;;;;
2019/08/22 07:47:41;;;;;;;4.9;1.8;;;;;;;19.05;72.61328;945.889;;;;
2019/08/22 07:50:24;;;;;;;4.7;1.6;;;;;;;19.87;69.10938;945.873;;;;
2019/08/22 07:53:08;;;;;;;4.5;1.6;;;;;;;21.02;64.64648;945.8332;;;;
2019/08/22 07:55:55;;;;;;;2.9;1.5;;;;;;;22.04;62.25195;945.8572;;;;
2019/08/22 07:59:13;;;;;;;2.3;1.4;;;;;;;23.17;58.29688;945.8245;;;;
2019/08/22 08:01:26;;;;;;;3.1;1.5;;;;;;;23.48;56.45605;945.7954;;;;
2019/08/22 08:03:55;;;;;;;1.8;1.3;;;;;;;22.79;57.2373;945.8524;;;;
2019/08/22 08:06:20;;;;;;;2.5;1.3;;;;;;;22.74;57.90137;945.8016;;;;
2019/08/22 08:11:16;;;;;;;3.5;1.4;;;;;;;24.05;54.1875;945.7933;;;;
2019/08/22 08:13:50;;;;;;;3.2;1.3;;;;;;;24.41;54.74805;945.7444;;;;
2019/08/22 08:16:17;;;;;;;2;1.5;;;;;;;24.6;54.57129;945.7833;;;;
2019/08/22 08:18:43;;;;;;;3.5;1.3;;;;;;;24.42;56.02148;945.7361;;;;
2019/08/22 08:21:32;;;;;;;2.7;1.2;;;;;;;25.51;50.42871;945.7464;;;;
2019/08/22 08:24:09;;;;;;;2;1.3;;;;;;;27.22;45.89063;945.7914;;;;
2019/08/22 08:26:39;;;;;;;4;1.4;;;;;;;27.53;46.7041;945.8178;;;;
2019/08/22 08:29:29;;;;;;;2.5;1.2;;;;;;;27.78;44.26172;945.7425;;;;
2019/08/22 08:32:03;;;;;;;2.7;1.3;;;;;;;27.88;44.55664;945.7542;;;;
2019/08/22 08:34:48;;;;;;;1.6;1.2;;;;;;;28.71;42.2002;945.7083;;;;
2019/08/22 08:37:16;;;;;;;3.7;1.1;;;;;;;28.42;43.06445;945.7363;;;;
2019/08/22 08:39:41;;;;;;;1.9;1.2;;;;;;;28.27;42.88379;945.7239;;;;
2019/08/22 08:42:23;;;;;;;2.5;1.2;;;;;;;28.5;43.4043;945.7709;;;;
2019/08/22 08:44:43;;;;;;;2.2;1.2;;;;;;;28.51;42.72754;945.6753;;;;
2019/08/22 08:47:10;;;;;;;3.2;1;;;;;;;28.79;43.42285;945.6859;;;;
2019/08/22 08:49:38;;;;;;;2.3;1.2;;;;;;;27.94;46.05859;945.6903;;;;
2019/08/22 08:52:15;;;;;;;2.2;1.1;;;;;;;27.79;46.83887;945.6889;;;;
2019/08/22 08:54:52;;;;;;;2.1;1.1;;;;;;;27.41;45.85059;945.7081;;;;
2019/08/22 09:00:30;;;;;;;2.9;1.2;;;;;;;26.29;51.72461;945.7236;;;;
2019/08/22 09:02:55;;;;;;;2.8;1.3;;;;;;;26.56;48.75879;945.7234;;;;
2019/08/22 09:05:32;;;;;;;2.6;1.5;;;;;;;26.57;49.29297;945.6739;;;;
2019/08/22 09:08:14;;;;;;;2.3;1.4;;;;;;;26.58;49.81543;945.72;;;;
2019/08/22 09:10:46;;;;;;;2.3;1.3;;;;;;;26.93;49.7832;945.7249;;;;
2019/08/22 09:13:29;;;;;;;2;1.2;;;;;;;26.61;49.42773;945.669;;;;
2019/08/22 09:16:06;;;;;;;3.3;1.6;;;;;;;26.74;49.77441;945.7486;;;;
2019/08/22 09:18:46;;;;;;;4;1.4;;;;;;;26.56;48.58203;945.6978;;;;
2019/08/22 09:21:17;;;;;;;3.7;1.2;;;;;;;26.3;51.55957;945.652;;;;
2019/08/22 09:23:50;;;;;;;1.8;1.5;;;;;;;25.93;52.1084;945.6515;;;;
2019/08/22 09:26:25;;;;;;;2.6;1.4;;;;;;;25.69;50.91016;945.5948;;;;
2019/08/22 09:29:01;;;;;;;4.3;1.4;;;;;;;25.55;52.51367;945.5939;;;;
2019/08/22 09:31:37;;;;;;;3.3;1.6;;;;;;;25.07;54.12109;945.5949;;;;
2019/08/22 09:34:10;;;;;;;2.9;1.9;;;;;;;24.54;56.22559;945.6494;;;;
2019/08/22 09:36:47;;;;;;;5;2.3;;;;;;;24.55;56.22656;945.6692;;;;
2019/08/22 09:39:16;;;;;;;3.6;2.3;;;;;;;24.29;55.27441;945.6799;;;;
2019/08/22 09:41:40;;;;;;;3.3;2.9;;;;;;;23.77;57.57617;945.7834;;;;
2019/08/22 09:44:25;;;;;;;3.5;2.9;;;;;;;23.64;57.92383;945.7467;;;;
2019/08/22 09:47:06;;;;;;;3;2.6;;;;;;;23.54;58.27539;945.7676;;;;
2019/08/22 09:49:33;;;;;;;3.6;3;;;;;;;23.47;58.90137;945.7573;;;;
2019/08/22 09:52:24;;;;;;;4;3.2;;;;;;;23.45;59.08594;945.6937;;;;
2019/08/22 09:54:52;;;;;;;3.8;2.9;;;;;;;23.36;59.44043;945.7625;;;;
2019/08/22 09:57:25;;;;;;;4;3.2;;;;;;;23.28;59.60547;945.7209;;;;
2019/08/22 09:59:52;;;;;;;5.3;3.3;;;;;;;23.47;58.58301;945.6591;;;;
2019/08/22 10:02:16;;;;;;;3.5;3;;;;;;;23.46;58.50098;945.7731;;;;
2019/08/22 10:07:28;;;;;;;4.9;3.3;;;;;;;23.5;57.89355;945.6989;;;;
2019/08/22 10:09:56;;;;;;;5.1;3.8;;;;;;;23.34;59.53125;945.7029;;;;
2019/08/22 10:12:27;;;;;;;4.4;3.1;;;;;;;23.43;59.23828;945.6397;;;;
2019/08/22 10:15:03;;;;;;;5;2.9;;;;;;;23.52;59.28516;945.7128;;;;
2019/08/22 10:17:51;;;;;;;5.5;3.7;;;;;;;22.82;59.0498;945.7073;;;;
2019/08/22 10:20:24;;;;;;;4.1;3.4;;;;;;;22.72;60.16406;945.7631;;;;
2019/08/22 10:23:01;;;;;;;4;3.5;;;;;;;22.78;61.05371;945.8022;;;;
2019/08/22 10:25:29;;;;;;;4.4;3.6;;;;;;;22.71;60.67871;945.8025;;;;
2019/08/22 10:28:03;;;;;;;4.8;4.3;;;;;;;22.38;61.60742;945.7117;;;;
2019/08/22 10:30:25;;;;;;;5.9;4.4;;;;;;;22.38;61.93652;945.7506;;;;
2019/08/22 10:35:36;;;;;;;5.5;4.9;;;;;;;22.33;61.49512;945.8492;;;;
2019/08/22 10:38:07;;;;;;;6.3;4.3;;;;;;;22.42;60.875;945.8778;;;;
2019/08/22 10:40:33;;;;;;;5.1;4.2;;;;;;;22.52;59.81934;945.7883;;;;
2019/08/22 10:43:05;;;;;;;5.1;4.2;;;;;;;22.65;60.53027;945.8826;;;;
2019/08/22 10:45:51;;;;;;;5.9;4.4;;;;;;;23.09;58.63965;945.7771;;;;
2019/08/22 10:48:19;;;;;;;5.1;4.3;;;;;;;23.37;58.9707;945.8267;;;;
2019/08/22 10:51:13;;;;;;;6.6;4.6;;;;;;;23.6;59.54199;945.7775;;;;
2019/08/22 10:53:26;;;;;;;6.7;5;;;;;;;23.6;57.44824;945.7678;;;;
2019/08/22 10:55:49;;;;;;;5.7;4.9;;;;;;;23.61;58.7666;945.7188;;;;
2019/08/22 10:58:26;;;;;;;6.4;4.5;;;;;;;23.37;58.14746;945.7258;;;;
2019/08/22 11:00:54;;;;;;;6.7;4.8;;;;;;;23.65;57.87891;945.743;;;;
2019/08/22 11:03:26;;;;;;;6.7;4.8;;;;;;;23.76;56.31641;945.7129;;;;
2019/08/22 11:06:00;;;;;;;7;5.3;;;;;;;24.19;56.90039;945.7589;;;;
2019/08/22 11:08:30;;;;;;;6;4.8;;;;;;;24.38;55.25098;945.7234;;;;
2019/08/22 11:11:07;;;;;;;5.9;4.5;;;;;;;24.45;54.74121;945.697;;;;
2019/08/22 11:14:05;;;;;;;7;4.3;;;;;;;25.21;53.11035;945.7263;;;;
2019/08/22 11:16:45;;;;;;;6;4.8;;;;;;;25.02;52.98145;945.7106;;;;
2019/08/22 11:19:17;;;;;;;5.1;4.6;;;;;;;25.64;53.77637;945.7131;;;;
2019/08/22 11:21:50;;;;;;;8.2;4.8;;;;;;;25.61;52.48535;945.7187;;;;
2019/08/22 11:24:20;;;;;;;5.9;5.3;;;;;;;25.4;53.18066;945.7026;;;;
2019/08/22 11:26:45;;;;;;;5.9;4.7;;;;;;;25.43;53.51563;945.7228;;;;
2019/08/22 11:29:29;;;;;;;5.2;4.7;;;;;;;25.63;52.33496;945.7101;;;;
2019/08/22 11:31:52;;;;;;;5.4;4.7;;;;;;;25.08;54.32324;945.7399;;;;
2019/08/22 11:34:31;;;;;;;6.6;4.5;;;;;;;24.45;55.31738;945.7754;;;;
2019/08/22 11:37:22;;;;;;;6.1;4.9;;;;;;;24.2;55.4873;945.7555;;;;
2019/08/22 11:39:25;;;;;;;5.6;4.5;;;;;;;23.82;57.40527;945.7877;;;;
2019/08/22 11:42:01;;;;;;;7.7;5.6;;;;;;;23.69;57.8584;945.7136;;;;
2019/08/22 11:44:46;;;;;;;7.7;5.8;;;;;;;23.57;58.50195;945.6948;;;;
2019/08/22 11:46:58;;;;;;;7.9;5.5;;;;;;;23.03;59.74902;945.7111;;;;
2019/08/22 11:49:39;;;;;;;10.1;5.9;;;;;;;23.09;59.78027;945.7186;;;;
2019/08/22 11:52:03;;;;;;;6.8;6;;;;;;;22.75;59.89844;945.8217;;;;
2019/08/22 11:54:45;;;;;;;7.6;6.3;;;;;;;22.27;61.22754;945.7761;;;;
2019/08/22 11:57:21;;;;;;;8.7;6.1;;;;;;;22.01;62.63477;945.7764;;;;
2019/08/22 11:59:46;;;;;;;7.1;6.1;;;;;;;21.68;64.48633;945.8092;;;;
2019/08/22 12:02:24;;;;;;;7.8;6.6;;;;;;;21.77;63.43164;945.8487;;;;
2019/08/22 12:05:02;;;;;;;7.8;6.7;;;;;;;21.79;63.69336;945.8345;;;;
2019/08/22 12:10:19;;;;;;;6.8;6.1;;;;;;;21.8;63.97656;945.8577;;;;
2019/08/22 12:12:52;;;;;;;6.5;5.9;;;;;;;21.75;63.46484;945.8661;;;;
2019/08/22 12:15:30;;;;;;;8.1;5.8;;;;;;;22.09;62.79883;945.879;;;;
2019/08/22 12:18:06;;;;;;;7.8;6.1;;;;;;;22.29;62.61523;945.8145;;;;
2019/08/22 12:20:38;;;;;;;7.2;5.4;;;;;;;21.94;62.59082;945.8208;;;;
2019/08/22 12:23:14;;;;;;;7;5.9;;;;;;;22.12;63.4707;945.8458;;;;
2019/08/22 12:25:45;;;;;;;8.2;6;;;;;;;21.96;63.62305;945.827;;;;
2019/08/22 12:28:18;;;;;;;6.6;5.8;;;;;;;21.62;64.76953;945.8142;;;;
2019/08/22 12:30:49;;;;;;;7.8;5.4;;;;;;;21.3;65.30859;945.8756;;;;
2019/08/22 12:33:16;;;;;;;8;6.4;;;;;;;20.84;66.28027;945.903;;;;
2019/08/22 12:36:01;;;;;;;7.9;6.1;;;;;;;21.11;66.19336;945.8738;;;;
2019/08/22 12:38:39;;;;;;;6.7;5.8;;;;;;;20.88;67.29102;945.9613;;;;
2019/08/22 12:41:01;;;;;;;7.1;5.9;;;;;;;20.64;68.21289;946.0114;;;;
2019/08/22 12:43:36;;;;;;;8.6;6.4;;;;;;;20.77;67.15918;945.9531;;;;
2019/08/22 12:46:14;;;;;;;7.1;5.7;;;;;;;20.77;67.23926;946.0229;;;;
2019/08/22 12:48:55;;;;;;;9.3;6.5;;;;;;;20.61;68.38379;945.9832;;;;
2019/08/22 12:51:42;;;;;;;6.9;6.2;;;;;;;20.43;69.95508;945.9847;;;;
2019/08/22 12:54:18;;;;;;;6.8;6.1;;;;;;;20.48;68.83008;946.0097;;;;
2019/08/22 12:59:21;;;;;;;7.7;6.5;;;;;;;20.51;68.04199;946.0982;;;;
2019/08/22 13:01:58;;;;;;;7.3;6.1;;;;;;;20.26;68.71484;946.0991;;;;
2019/08/22 13:04:40;;;;;;;7;6.3;;;;;;;20.23;69.45801;946.0793;;;;
2019/08/22 13:07:17;;;;;;;7.5;6.5;;;;;;;20.02;69.4707;946.128;;;;
2019/08/22 13:09:57;;;;;;;8.5;6.7;;;;;;;19.68;70.28125;946.1599;;;;
2019/08/22 13:12:24;;;;;;;7.4;6.7;;;;;;;19.55;70.56348;946.1426;;;;
2019/08/22 13:14:51;;;;;;;7.2;6.5;;;;;;;19.63;70.90137;946.1395;;;;
2019/08/22 13:17:25;;;;;;;9.1;6.7;;;;;;;19.46;71.14258;946.1264;;;;
2019/08/22 13:19:55;;;;;;;9.4;6.4;;;;;;;19.41;71.11328;946.1599;;;;
2019/08/22 13:22:26;;;;;;;7.6;6.4;;;;;;;19.38;72.29395;946.1262;;;;
2019/08/22 13:24:54;;;;;;;9.2;7.3;;;;;;;19.54;72.36914;946.0853;;;;
2019/08/22 13:27:34;;;;;;;8;6.7;;;;;;;19.54;71.77441;946.0966;;;;
2019/08/22 13:30:09;;;;;;;7.3;6.4;;;;;;;19.32;72.09863;946.1577;;;;
2019/08/22 13:32:58;;;;;;;9.1;6.5;;;;;;;19.24;71.81934;946.1772;;;;
2019/08/22 13:35:26;;;;;;;7.5;6.7;;;;;;;19.61;71.31836;946.0869;;;;
2019/08/22 13:38:04;;;;;;;12.3;6.9;;;;;;;19.5;71.63867;946.1768;;;;
2019/08/22 13:40:41;;;;;;;9.1;6.1;;;;;;;19.59;71.71289;946.1622;;;;
2019/08/22 13:43:21;;;;;;;9.4;6.6;;;;;;;19.72;71.45215;946.1714;;;;
2019/08/22 13:45:53;;;;;;;9.7;6.4;;;;;;;19.93;71.19629;946.1107;;;;
2019/08/22 13:48:18;;;;;;;9.2;6.1;;;;;;;19.93;70.83398;946.1649;;;;
2019/08/22 13:51:17;;;;;;;8.3;5.7;;;;;;;19.94;70.70703;946.1395;;;;
2019/08/22 13:53:36;;;;;;;9.5;6.2;;;;;;;19.91;70.6084;946.1512;;;;
2019/08/22 13:56:14;;;;;;;6.6;5.9;;;;;;;19.68;70.93359;946.1541;;;;
2019/08/22 13:58:40;;;;;;;6.6;5.7;;;;;;;19.74;71.24707;946.1549;;;;
2019/08/22 14:01:19;;;;;;;6.9;5.8;;;;;;;19.41;71.60059;946.2261;;;;
2019/08/22 14:03:44;;;;;;;6.7;5.5;;;;;;;19.5;72.2334;946.2075;;;;
2019/08/22 14:06:18;;;;;;;6.9;6;;;;;;;19.6;71.69043;946.1904;;;;
2019/08/22 14:08:59;;;;;;;7.4;6;;;;;;;19.54;72.1123;946.1791;;;;
2019/08/22 14:11:24;;;;;;;6.3;5.7;;;;;;;19.47;72.42676;946.2434;;;;
2019/08/22 14:14:00;;;;;;;8.1;6.2;;;;;;;19.58;71.57031;946.1333;;;;
2019/08/22 14:16:45;;;;;;;8.4;5.7;;;;;;;19.44;72.2832;946.2219;;;;
2019/08/22 14:19:25;;;;;;;7.7;6;;;;;;;19.59;71.86328;946.1566;;;;
2019/08/22 14:21:58;;;;;;;8.2;6.1;;;;;;;19.28;71.96387;946.2397;;;;
2019/08/22 14:24:38;;;;;;;7.8;6.6;;;;;;;19.42;72.27832;946.2214;;;;
2019/08/22 14:27:16;;;;;;;8.6;6.8;;;;;;;19.39;72.10938;946.1948;;;;
2019/08/22 14:29:42;;;;;;;8.7;7;;;;;;;19.24;72.78613;946.1359;;;;
2019/08/22 14:32:19;;;;;;;8.3;6.7;;;;;;;19.36;72.61914;946.1241;;;;
2019/08/22 14:34:54;;;;;;;8.4;7.4;;;;;;;19.29;72.49023;946.1306;;;;
2019/08/22 14:38:14;;;;;;;9.7;6.5;;;;;;;19.22;72.72363;946.1489;;;;
2019/08/22 14:40:48;;;;;;;7.6;6.3;;;;;;;19.4;72.82324;946.1777;;;;
2019/08/22 14:43:21;;;;;;;7.9;6.3;;;;;;;19.29;72.15234;946.1628;;;;
2019/08/22 14:45:48;;;;;;;7.1;6.4;;;;;;;19.28;73.09473;946.1605;;;;
2019/08/22 14:48:15;;;;;;;8;6.9;;;;;;;18.97;73.74121;946.1948;;;;
2019/08/22 14:50:48;;;;;;;7.7;6.5;;;;;;;19.21;72.95508;946.2321;;;;
2019/08/22 14:53:24;;;;;;;7.5;6.7;;;;;;;18.97;72.96094;946.2521;;;;
2019/08/22 14:55:54;;;;;;;7.9;7.1;;;;;;;19.13;73.57031;946.1959;;;;
2019/08/22 14:58:29;;;;;;;8.6;6.9;;;;;;;19.09;73.66699;946.2496;;;;
2019/08/22 15:01:06;;;;;;;9.6;7;;;;;;;19.11;74.02148;946.2276;;;;
2019/08/22 15:03:45;;;;;;;8.3;6.3;;;;;;;18.97;73.97559;946.2375;;;;
2019/08/22 15:06:15;;;;;;;9;7.2;;;;;;;19.09;73.62207;946.2729;;;;
2019/08/22 15:08:48;;;;;;;7.5;6.6;;;;;;;19.18;73.33496;946.2664;;;;
2019/08/22 15:11:33;;;;;;;7.4;6.5;;;;;;;19.05;73.10059;946.3114;;;;
2019/08/22 15:14:16;;;;;;;8.3;6.9;;;;;;;18.77;74.46387;946.2723;;;;
2019/08/22 15:16:48;;;;;;;8.3;6.3;;;;;;;18.9;73.56738;946.1931;;;;
2019/08/22 15:19:22;;;;;;;8.2;6.8;;;;;;;18.78;74.98926;946.2375;;;;
2019/08/22 15:22:25;;;;;;;9.1;6.7;;;;;;;18.84;74.94141;946.2679;;;;
2019/08/22 15:24:54;;;;;;;9.4;6.8;;;;;;;18.88;74.51758;946.2523;;;;
2019/08/22 15:27:19;;;;;;;7.4;6.6;;;;;;;18.95;73.22754;946.291;;;;
2019/08/22 15:29:53;;;;;;;8;6.4;;;;;;;19;73.72363;946.3123;;;;
2019/08/22 15:32:21;;;;;;;8.1;6.6;;;;;;;19.02;73.52832;946.2614;;;;
2019/08/22 15:34:50;;;;;;;7.1;6.3;;;;;;;18.91;73.7998;946.2245;;;;
2019/08/22 15:37:34;;;;;;;8.2;6.3;;;;;;;19.01;73.87695;946.2251;;;;
2019/08/22 15:40:06;;;;;;;8.1;6.4;;;;;;;18.99;74.26758;946.2141;;;;
2019/08/22 15:42:47;;;;;;;7.8;6.6;;;;;;;18.82;74.38965;946.2816;;;;
2019/08/22 15:45:33;;;;;;;7.8;6.7;;;;;;;18.65;75.0957;946.2823;;;;
2019/08/22 15:48:13;;;;;;;10.9;6.8;;;;;;;18.59;74.47852;946.2363;;;;
2019/08/22 15:50:39;;;;;;;8.9;6.7;;;;;;;18.51;75.11719;946.2877;;;;
2019/08/22 15:53:09;;;;;;;10.1;7;;;;;;;18.49;74.9502;946.3557;;;;
2019/08/22 15:55:46;;;;;;;9.2;6.9;;;;;;;18.52;76.38672;946.3756;;;;
2019/08/22 15:58:16;;;;;;;8.7;6.9;;;;;;;18.65;74.87402;946.3574;;;;
2019/08/22 16:03:39;;;;;;;10.3;7.3;;;;;;;18.5;75.31348;946.3161;;;;
2019/08/22 16:06:19;;;;;;;16.1;9.6;;;;;;;18.5;74.97656;946.2863;;;;
2019/08/22 16:09:05;;;;;;;11.6;7.8;;;;;;;18.35;75.59082;946.3242;;;;
2019/08/22 16:11:42;;;;;;;13.6;8.6;;;;;;;18.33;76.52832;946.3333;;;;
2019/08/22 16:14:09;;;;;;;9.6;7.6;;;;;;;18.52;75.95801;946.332;;;;
2019/08/22 16:16:37;;;;;;;9.6;7;;;;;;;18.64;75.52441;946.3122;;;;
2019/08/22 16:19:02;;;;;;;10.1;6.9;;;;;;;18.61;74.90137;946.3192;;;;
2019/08/22 16:21:34;;;;;;;8.7;6.9;;;;;;;18.59;74.67773;946.3234;;;;
2019/08/22 16:24:08;;;;;;;8.4;6.5;;;;;;;18.59;75.49219;946.2919;;;;
2019/08/22 16:26:50;;;;;;;10.3;7.4;;;;;;;18.69;75.41602;946.2787;;;;
2019/08/22 16:29:23;;;;;;;10.8;7.3;;;;;;;18.79;74.97852;946.3569;;;;
2019/08/22 16:32:06;;;;;;;10;7;;;;;;;18.82;74.80859;946.3848;;;;
2019/08/22 16:34:29;;;;;;;10.2;7.7;;;;;;;18.84;74.65039;946.4205;;;;
2019/08/22 16:37:10;;;;;;;8.8;7.1;;;;;;;18.71;74.5459;946.3826;;;;
2019/08/22 16:39:35;;;;;;;7.3;6.4;;;;;;;18.57;75.61621;946.3937;;;;
2019/08/22 16:42:10;;;;;;;8.1;6.5;;;;;;;18.6;75.0293;946.4095;;;;
2019/08/22 16:47:08;;;;;;;7.9;6.8;;;;;;;18.71;74.73242;946.4384;;;;
2019/08/22 16:49:38;;;;;;;8.1;7.2;;;;;;;18.71;75.05859;946.3826;;;;
2019/08/22 16:52:08;;;;;;;9.2;6.6;;;;;;;18.65;75.15332;946.4453;;;;